createdAt,value
2022-10-05T00:00:14.219Z,1015.76
2022-10-05T00:01:14.366Z,1015.77
2022-10-05T00:02:14.585Z,1015.80
2022-10-05T00:03:14.697Z,1015.77
2022-10-05T00:04:14.914Z,1015.74
2022-10-05T00:05:14.994Z,1015.72
2022-10-05T00:06:15.096Z,1015.73
2022-10-05T00:07:15.229Z,1015.68
2022-10-05T00:08:15.411Z,1015.62
2022-10-05T00:09:15.516Z,1015.65
2022-10-05T00:10:15.620Z,1015.66
2022-10-05T00:11:15.749Z,1015.59
2022-10-05T00:12:15.880Z,1015.64
2022-10-05T00:13:16.038Z,1015.60
2022-10-05T00:14:16.142Z,1015.64
2022-10-05T00:15:16.263Z,1015.60
2022-10-05T00:16:16.495Z,1015.62
2022-10-05T00:17:16.515Z,1015.64
2022-10-05T00:18:16.651Z,1015.61
2022-10-05T00:19:16.794Z,1015.57
2022-10-05T00:20:16.951Z,1015.58
2022-10-05T00:21:17.120Z,1015.52
2022-10-05T00:22:17.218Z,1015.53
2022-10-05T00:23:17.367Z,1015.44
2022-10-05T00:24:17.542Z,1015.46
2022-10-05T00:25:17.658Z,1015.47
2022-10-05T00:26:17.875Z,1015.49
2022-10-05T00:27:17.965Z,1015.51
2022-10-05T00:28:18.225Z,1015.46
2022-10-05T00:29:18.263Z,1015.47
2022-10-05T00:30:18.412Z,1015.47
2022-10-05T00:31:18.772Z,1015.43
2022-10-05T00:32:18.657Z,1015.48
2022-10-05T00:33:18.774Z,1015.48
2022-10-05T00:34:18.898Z,1015.44
2022-10-05T00:35:19.019Z,1015.38
2022-10-05T00:36:19.172Z,1015.36
2022-10-05T00:37:19.269Z,1015.39
2022-10-05T00:38:19.431Z,1015.37
2022-10-05T00:39:19.672Z,1015.35
2022-10-05T00:40:19.642Z,1015.32
2022-10-05T00:41:19.763Z,1015.34
2022-10-05T00:42:19.914Z,1015.30
2022-10-05T00:43:20.009Z,1015.28
2022-10-05T00:44:20.137Z,1015.26
2022-10-05T00:45:20.283Z,1015.32
2022-10-05T00:46:20.482Z,1015.31
2022-10-05T00:47:20.547Z,1015.29
2022-10-05T00:48:20.647Z,1015.30
2022-10-05T00:49:20.783Z,1015.36
2022-10-05T00:50:20.998Z,1015.34
2022-10-05T00:51:21.080Z,1015.26
2022-10-05T00:52:21.228Z,1015.22
2022-10-05T00:53:21.376Z,1015.20
2022-10-05T00:54:21.515Z,1015.24
2022-10-05T00:55:21.719Z,1015.26
2022-10-05T00:56:21.814Z,1015.31
2022-10-05T00:57:21.967Z,1015.33
2022-10-05T00:58:22.129Z,1015.30
2022-10-05T00:59:22.281Z,1015.32
2022-10-05T01:00:22.495Z,1015.35
2022-10-05T01:01:22.663Z,1015.41
2022-10-05T01:02:22.846Z,1015.44
2022-10-05T01:03:22.891Z,1015.45
2022-10-05T01:04:23.034Z,1015.41
2022-10-05T01:05:23.222Z,1015.39
2022-10-05T01:06:23.344Z,1015.40
2022-10-05T01:07:23.492Z,1015.37
2022-10-05T01:08:23.638Z,1015.39
2022-10-05T01:09:23.798Z,1015.38
2022-10-05T01:10:24.030Z,1015.38
2022-10-05T01:11:24.053Z,1015.29
2022-10-05T01:12:24.171Z,1015.31
2022-10-05T01:13:24.290Z,1015.27
2022-10-05T01:14:24.427Z,1015.20
2022-10-05T01:15:24.657Z,1015.18
2022-10-05T01:16:24.767Z,1015.15
2022-10-05T01:17:24.876Z,1015.19
2022-10-05T01:18:25.028Z,1015.15
2022-10-05T01:19:25.171Z,1015.15
2022-10-05T01:20:25.405Z,1015.11
2022-10-05T01:21:25.469Z,1015.13
2022-10-05T01:22:25.598Z,1015.11
2022-10-05T01:23:25.730Z,1015.13
2022-10-05T01:24:25.838Z,1015.10
2022-10-05T01:25:26.127Z,1015.14
2022-10-05T01:26:26.164Z,1015.16
2022-10-05T01:27:26.190Z,1015.17
2022-10-05T01:28:26.394Z,1015.16
2022-10-05T01:29:26.435Z,1015.16
2022-10-05T01:30:26.558Z,1015.15
2022-10-05T01:31:27.025Z,1015.21
2022-10-05T01:32:26.993Z,1015.20
2022-10-05T01:33:26.999Z,1015.18
2022-10-05T01:34:27.152Z,1015.18
2022-10-05T01:35:27.301Z,1015.17
2022-10-05T01:36:27.451Z,1015.09
2022-10-05T01:37:27.592Z,1015.15
2022-10-05T01:38:27.692Z,1015.15
2022-10-05T01:39:27.807Z,1015.10
2022-10-05T01:40:27.933Z,1015.11
2022-10-05T01:41:28.187Z,1015.07
2022-10-05T01:42:28.247Z,1015.04
2022-10-05T01:43:28.350Z,1014.97
2022-10-05T01:44:28.447Z,1014.99
2022-10-05T01:45:28.654Z,1014.94
2022-10-05T01:46:28.743Z,1014.92
2022-10-05T01:47:29.077Z,1014.90
2022-10-05T01:48:28.998Z,1014.83
2022-10-05T01:49:29.130Z,1014.79
2022-10-05T01:50:29.254Z,1014.77
2022-10-05T01:51:29.377Z,1014.76
2022-10-05T01:52:29.524Z,1014.76
2022-10-05T01:53:29.615Z,1014.75
2022-10-05T01:54:29.844Z,1014.73
2022-10-05T01:55:29.866Z,1014.70
2022-10-05T01:56:29.993Z,1014.70
2022-10-05T01:57:30.142Z,1014.70
2022-10-05T01:58:30.243Z,1014.71
2022-10-05T01:59:30.396Z,1014.74
2022-10-05T02:00:30.533Z,1014.74
2022-10-05T02:01:30.750Z,1014.77
2022-10-05T02:02:30.816Z,1014.80
2022-10-05T02:03:30.892Z,1014.76
2022-10-05T02:05:00.476Z,1014.79
2022-10-05T02:05:31.201Z,1014.77
2022-10-05T02:06:31.348Z,1014.78
2022-10-05T02:07:31.494Z,1014.79
2022-10-05T02:08:31.633Z,1014.71
2022-10-05T02:09:31.811Z,1014.71
2022-10-05T02:10:31.973Z,1014.68
2022-10-05T02:11:32.074Z,1014.70
2022-10-05T02:12:32.219Z,1014.73
2022-10-05T02:13:32.402Z,1014.72
2022-10-05T02:14:32.517Z,1014.69
2022-10-05T02:15:32.906Z,1014.66
2022-10-05T02:16:32.821Z,1014.68
2022-10-05T02:17:32.980Z,1014.68
2022-10-05T02:18:33.153Z,1014.70
2022-10-05T02:19:33.285Z,1014.65
2022-10-05T02:20:33.611Z,1014.68
2022-10-05T02:21:33.567Z,1014.61
2022-10-05T02:22:33.711Z,1014.62
2022-10-05T02:23:33.855Z,1014.64
2022-10-05T02:24:33.971Z,1014.63
2022-10-05T02:25:34.152Z,1014.62
2022-10-05T02:26:34.227Z,1014.59
2022-10-05T02:27:34.348Z,1014.59
2022-10-05T02:28:34.547Z,1014.58
2022-10-05T02:29:34.608Z,1014.56
2022-10-05T02:30:34.768Z,1014.59
2022-10-05T02:31:34.925Z,1014.62
2022-10-05T02:32:34.993Z,1014.63
2022-10-05T02:33:35.124Z,1014.64
2022-10-05T02:34:35.263Z,1014.63
2022-10-05T02:35:35.455Z,1014.60
2022-10-05T02:36:35.542Z,1014.57
2022-10-05T02:37:35.690Z,1014.53
2022-10-05T02:38:35.822Z,1014.57
2022-10-05T02:39:35.968Z,1014.56
2022-10-05T02:40:36.149Z,1014.52
2022-10-05T02:41:36.248Z,1014.56
2022-10-05T02:42:36.398Z,1014.56
2022-10-05T02:43:36.488Z,1014.51
2022-10-05T02:44:36.654Z,1014.52
2022-10-05T02:45:36.777Z,1014.47
2022-10-05T02:46:36.898Z,1014.47
2022-10-05T02:47:37.044Z,1014.45
2022-10-05T02:48:37.145Z,1014.43
2022-10-05T02:49:37.288Z,1014.42
2022-10-05T02:50:37.435Z,1014.39
2022-10-05T02:51:37.577Z,1014.37
2022-10-05T02:52:37.756Z,1014.34
2022-10-05T02:53:37.860Z,1014.33
2022-10-05T02:54:37.990Z,1014.32
2022-10-05T02:55:38.124Z,1014.30
2022-10-05T02:56:38.254Z,1014.33
2022-10-05T02:57:38.423Z,1014.36
2022-10-05T02:58:38.528Z,1014.32
2022-10-05T02:59:38.689Z,1014.21
2022-10-05T03:00:38.807Z,1014.18
2022-10-05T03:01:39.074Z,1014.19
2022-10-05T03:02:39.110Z,1014.20
2022-10-05T03:03:39.242Z,1014.19
2022-10-05T03:04:39.349Z,1014.15
2022-10-05T03:05:39.477Z,1014.09
2022-10-05T03:06:39.605Z,1014.07
2022-10-05T03:07:39.777Z,1014.05
2022-10-05T03:08:39.912Z,1014.00
2022-10-05T03:09:40.025Z,1014.01
2022-10-05T03:10:40.153Z,1014.03
2022-10-05T03:11:40.280Z,1014.06
2022-10-05T03:12:40.450Z,1014.07
2022-10-05T03:13:40.579Z,1014.04
2022-10-05T03:14:40.701Z,1014.00
2022-10-05T03:15:40.954Z,1013.98
2022-10-05T03:16:41.008Z,1013.98
2022-10-05T03:17:41.198Z,1013.98
2022-10-05T03:18:41.322Z,1014.00
2022-10-05T03:19:41.476Z,1013.95
2022-10-05T03:20:41.630Z,1014.03
2022-10-05T03:21:41.798Z,1014.08
2022-10-05T03:22:41.984Z,1014.05
2022-10-05T03:23:42.143Z,1014.03
2022-10-05T03:24:42.265Z,1014.05
2022-10-05T03:25:42.423Z,1014.07
2022-10-05T03:26:42.768Z,1014.02
2022-10-05T03:27:42.938Z,1014.03
2022-10-05T03:28:42.831Z,1013.99
2022-10-05T03:29:42.958Z,1013.97
2022-10-05T03:30:43.103Z,1014.01
2022-10-05T03:31:43.251Z,1014.00
2022-10-05T03:32:43.382Z,1014.00
2022-10-05T03:33:43.489Z,1014.03
2022-10-05T03:34:43.669Z,1014.02
2022-10-05T03:35:43.785Z,1014.03
2022-10-05T03:36:44.342Z,1014.04
2022-10-05T03:37:44.070Z,1014.06
2022-10-05T03:38:44.252Z,1014.10
2022-10-05T03:39:44.335Z,1014.13
2022-10-05T03:40:44.475Z,1014.15
2022-10-05T03:41:44.620Z,1014.16
2022-10-05T03:42:44.770Z,1014.09
2022-10-05T03:43:44.954Z,1014.10
2022-10-05T03:44:45.120Z,1014.08
2022-10-05T03:45:45.306Z,1014.08
2022-10-05T03:46:45.773Z,1014.07
2022-10-05T03:47:45.545Z,1014.04
2022-10-05T03:48:45.655Z,1014.02
2022-10-05T03:49:45.841Z,1014.05
2022-10-05T03:50:45.945Z,1014.06
2022-10-05T03:51:46.090Z,1014.02
2022-10-05T03:52:46.235Z,1014.04
2022-10-05T03:53:46.381Z,1014.02
2022-10-05T03:54:46.568Z,1014.04
2022-10-05T03:55:46.681Z,1014.03
2022-10-05T03:56:47.236Z,1014.01
2022-10-05T03:57:46.964Z,1014.06
2022-10-05T03:58:47.117Z,1014.07
2022-10-05T03:59:47.258Z,1014.04
2022-10-05T04:00:47.409Z,1014.02
2022-10-05T04:01:47.640Z,1014.03
2022-10-05T04:02:47.753Z,1013.98
2022-10-05T04:03:47.867Z,1013.97
2022-10-05T04:04:47.986Z,1013.97
2022-10-05T04:05:48.153Z,1013.94
2022-10-05T04:06:48.720Z,1013.94
2022-10-05T04:07:48.395Z,1013.92
2022-10-05T04:08:48.541Z,1013.95
2022-10-05T04:09:48.682Z,1013.95
2022-10-05T04:10:48.848Z,1013.96
2022-10-05T04:11:48.987Z,1013.95
2022-10-05T04:12:49.113Z,1013.98
2022-10-05T04:13:49.246Z,1013.96
2022-10-05T04:14:49.388Z,1013.97
2022-10-05T04:15:49.638Z,1013.94
2022-10-05T04:16:49.916Z,1013.91
2022-10-05T04:17:49.828Z,1013.94
2022-10-05T04:18:50.023Z,1013.93
2022-10-05T04:19:50.136Z,1013.94
2022-10-05T04:20:50.285Z,1013.87
2022-10-05T04:21:50.452Z,1013.82
2022-10-05T04:22:50.552Z,1013.83
2022-10-05T04:23:50.681Z,1013.86
2022-10-05T04:24:50.816Z,1013.83
2022-10-05T04:25:50.954Z,1013.84
2022-10-05T04:26:51.122Z,1013.82
2022-10-05T04:27:51.244Z,1013.80
2022-10-05T04:28:51.367Z,1013.80
2022-10-05T04:29:51.490Z,1013.80
2022-10-05T04:30:51.649Z,1013.80
2022-10-05T04:31:51.816Z,1013.84
2022-10-05T04:32:51.857Z,1013.85
2022-10-05T04:33:52.016Z,1013.85
2022-10-05T04:34:52.148Z,1013.85
2022-10-05T04:35:52.243Z,1013.81
2022-10-05T04:36:52.367Z,1013.81
2022-10-05T04:37:52.704Z,1013.81
2022-10-05T04:38:52.666Z,1013.79
2022-10-05T04:39:52.726Z,1013.80
2022-10-05T04:40:52.845Z,1013.82
2022-10-05T04:41:52.970Z,1013.75
2022-10-05T04:42:53.235Z,1013.75
2022-10-05T04:43:53.215Z,1013.71
2022-10-05T04:44:57.077Z,1013.72
2022-10-05T04:45:53.472Z,1013.72
2022-10-05T04:46:53.719Z,1013.71
2022-10-05T04:47:53.765Z,1013.67
2022-10-05T04:48:53.896Z,1013.72
2022-10-05T04:49:54.015Z,1013.67
2022-10-05T04:50:54.122Z,1013.65
2022-10-05T04:51:54.256Z,1013.65
2022-10-05T04:52:54.425Z,1013.60
2022-10-05T04:53:54.543Z,1013.60
2022-10-05T04:54:54.651Z,1013.58
2022-10-05T04:55:54.797Z,1013.55
2022-10-05T04:56:54.940Z,1013.57
2022-10-05T04:57:55.110Z,1013.49
2022-10-05T04:58:55.245Z,1013.49
2022-10-05T04:59:55.346Z,1013.47
2022-10-05T05:00:55.583Z,1013.51
2022-10-05T05:01:55.624Z,1013.51
2022-10-05T05:02:55.794Z,1013.52
2022-10-05T05:03:55.984Z,1013.51
2022-10-05T05:04:56.067Z,1013.51
2022-10-05T05:06:15.914Z,1013.48
2022-10-05T05:06:56.373Z,1013.52
2022-10-05T05:07:56.535Z,1013.48
2022-10-05T05:08:56.786Z,1013.52
2022-10-05T05:09:56.848Z,1013.48
2022-10-05T05:10:57.002Z,1013.58
2022-10-05T05:11:57.165Z,1013.57
2022-10-05T05:12:57.331Z,1013.51
2022-10-05T05:13:57.535Z,1013.53
2022-10-05T05:14:57.688Z,1013.47
2022-10-05T05:15:57.946Z,1013.42
2022-10-05T05:16:57.960Z,1013.40
2022-10-05T05:17:58.136Z,1013.47
2022-10-05T05:18:58.246Z,1013.49
2022-10-05T05:19:58.502Z,1013.48
2022-10-05T05:20:58.533Z,1013.49
2022-10-05T05:21:58.688Z,1013.48
2022-10-05T05:22:58.802Z,1013.50
2022-10-05T05:23:58.920Z,1013.48
2022-10-05T05:24:59.104Z,1013.53
2022-10-05T05:25:59.176Z,1013.52
2022-10-05T05:26:59.311Z,1013.45
2022-10-05T05:27:59.528Z,1013.48
2022-10-05T05:28:59.573Z,1013.47
2022-10-05T05:29:59.706Z,1013.50
2022-10-05T05:30:59.904Z,1013.53
2022-10-05T05:32:00.002Z,1013.52
2022-10-05T05:33:00.114Z,1013.54
2022-10-05T05:34:00.240Z,1013.58
2022-10-05T05:35:00.371Z,1013.60
2022-10-05T05:36:00.661Z,1013.61
2022-10-05T05:37:00.621Z,1013.58
2022-10-05T05:38:00.775Z,1013.55
2022-10-05T05:39:00.902Z,1013.55
2022-10-05T05:40:01.055Z,1013.52
2022-10-05T05:41:01.303Z,1013.49
2022-10-05T05:42:01.363Z,1013.47
2022-10-05T05:43:01.527Z,1013.44
2022-10-05T05:44:01.643Z,1013.43
2022-10-05T05:45:01.792Z,1013.39
2022-10-05T05:46:01.997Z,1013.38
2022-10-05T05:47:04.839Z,1013.36
2022-10-05T05:48:02.290Z,1013.35
2022-10-05T05:49:02.410Z,1013.35
2022-10-05T05:50:06.991Z,1013.31
2022-10-05T05:51:02.816Z,1013.37
2022-10-05T05:52:02.883Z,1013.42
2022-10-05T05:53:03.058Z,1013.43
2022-10-05T05:54:03.242Z,1013.38
2022-10-05T05:55:03.345Z,1013.39
2022-10-05T05:56:03.576Z,1013.39
2022-10-05T05:57:03.607Z,1013.33
2022-10-05T05:58:03.749Z,1013.34
2022-10-05T05:59:03.874Z,1013.32
2022-10-05T06:00:04.027Z,1013.37
2022-10-05T06:01:04.327Z,1013.32
2022-10-05T06:02:04.470Z,1013.26
2022-10-05T06:03:04.627Z,1013.33
2022-10-05T06:04:04.651Z,1013.34
2022-10-05T06:05:04.785Z,1013.31
2022-10-05T06:06:04.980Z,1013.32
2022-10-05T06:07:05.105Z,1013.31
2022-10-05T06:08:05.274Z,1013.29
2022-10-05T06:09:05.472Z,1013.30
2022-10-05T06:10:05.579Z,1013.33
2022-10-05T06:11:05.772Z,1013.35
2022-10-05T06:12:05.863Z,1013.36
2022-10-05T06:13:06.012Z,1013.38
2022-10-05T06:14:06.178Z,1013.39
2022-10-05T06:15:06.340Z,1013.38
2022-10-05T06:16:06.581Z,1013.37
2022-10-05T06:17:06.784Z,1013.31
2022-10-05T06:18:06.836Z,1013.33
2022-10-05T06:19:06.997Z,1013.36
2022-10-05T06:20:07.137Z,1013.32
2022-10-05T06:21:07.280Z,1013.38
2022-10-05T06:22:07.446Z,1013.37
2022-10-05T06:23:07.673Z,1013.41
2022-10-05T06:24:07.680Z,1013.40
2022-10-05T06:25:07.842Z,1013.41
2022-10-05T06:26:10.734Z,1013.40
2022-10-05T06:27:08.049Z,1013.37
2022-10-05T06:28:08.315Z,1013.39
2022-10-05T06:29:08.330Z,1013.33
2022-10-05T06:30:08.480Z,1013.32
2022-10-05T06:31:08.712Z,1013.40
2022-10-05T06:32:08.850Z,1013.39
2022-10-05T06:33:09.152Z,1013.40
2022-10-05T06:34:09.092Z,1013.47
2022-10-05T06:35:09.245Z,1013.42
2022-10-05T06:36:09.397Z,1013.47
2022-10-05T06:37:09.545Z,1013.46
2022-10-05T06:38:09.796Z,1013.43
2022-10-05T06:39:09.851Z,1013.45
2022-10-05T06:40:10.026Z,1013.41
2022-10-05T06:41:10.143Z,1013.42
2022-10-05T06:42:10.305Z,1013.42
2022-10-05T06:43:10.503Z,1013.41
2022-10-05T06:44:10.611Z,1013.41
2022-10-05T06:45:10.772Z,1013.45
2022-10-05T06:46:10.970Z,1013.44
2022-10-05T06:47:11.056Z,1013.41
2022-10-05T06:48:11.302Z,1013.44
2022-10-05T06:49:11.302Z,1013.44
2022-10-05T06:50:11.429Z,1013.41
2022-10-05T06:51:11.544Z,1013.45
2022-10-05T06:52:11.661Z,1013.49
2022-10-05T06:53:11.817Z,1013.46
2022-10-05T06:54:11.901Z,1013.44
2022-10-05T06:55:14.352Z,1013.37
2022-10-05T06:56:12.168Z,1013.39
2022-10-05T06:57:12.260Z,1013.48
2022-10-05T06:58:12.373Z,1013.44
2022-10-05T06:59:12.569Z,1013.45
2022-10-05T07:00:12.819Z,1013.48
2022-10-05T07:01:12.837Z,1013.45
2022-10-05T07:02:12.925Z,1013.49
2022-10-05T07:03:12.976Z,1013.49
2022-10-05T07:04:13.124Z,1013.56
2022-10-05T07:05:13.305Z,1013.51
2022-10-05T07:06:13.416Z,1013.47
2022-10-05T07:07:13.571Z,1013.39
2022-10-05T07:08:13.709Z,1013.45
2022-10-05T07:09:13.857Z,1013.50
2022-10-05T07:10:14.217Z,1013.49
2022-10-05T07:11:14.171Z,1013.48
2022-10-05T07:12:14.300Z,1013.47
2022-10-05T07:13:14.467Z,1013.43
2022-10-05T07:14:14.611Z,1013.45
2022-10-05T07:15:14.804Z,1013.46
2022-10-05T07:16:14.971Z,1013.45
2022-10-05T07:17:15.058Z,1013.43
2022-10-05T07:18:15.176Z,1013.50
2022-10-05T07:19:15.317Z,1013.50
2022-10-05T07:20:15.618Z,1013.52
2022-10-05T07:21:15.601Z,1013.49
2022-10-05T07:22:15.753Z,1013.51
2022-10-05T07:23:15.900Z,1013.53
2022-10-05T07:24:16.039Z,1013.57
2022-10-05T07:25:16.265Z,1013.55
2022-10-05T07:26:16.399Z,1013.55
2022-10-05T07:27:16.441Z,1013.54
2022-10-05T07:28:16.649Z,1013.56
2022-10-05T07:29:16.670Z,1013.51
2022-10-05T07:30:16.916Z,1013.50
2022-10-05T07:31:17.013Z,1013.54
2022-10-05T07:32:17.048Z,1013.49
2022-10-05T07:33:17.198Z,1013.51
2022-10-05T07:34:17.353Z,1013.49
2022-10-05T07:35:17.810Z,1013.48
2022-10-05T07:36:17.695Z,1013.51
2022-10-05T07:37:17.786Z,1013.55
2022-10-05T07:38:18.022Z,1013.56
2022-10-05T07:39:18.265Z,1013.56
2022-10-05T07:40:18.256Z,1013.61
2022-10-05T07:41:18.351Z,1013.60
2022-10-05T07:42:18.537Z,1013.62
2022-10-05T07:43:19.793Z,1013.62
2022-10-05T07:44:18.770Z,1013.66
2022-10-05T07:45:18.957Z,1013.66
2022-10-05T07:46:19.198Z,1013.63
2022-10-05T07:47:19.200Z,1013.58
2022-10-05T07:48:19.352Z,1013.58
2022-10-05T07:49:19.479Z,1013.56
2022-10-05T07:50:19.598Z,1013.64
2022-10-05T07:51:19.679Z,1013.60
2022-10-05T07:52:19.821Z,1013.61
2022-10-05T07:53:19.904Z,1013.61
2022-10-05T07:54:20.025Z,1013.63
2022-10-05T07:55:20.174Z,1013.55
2022-10-05T07:56:20.220Z,1013.57
2022-10-05T07:57:20.331Z,1013.53
2022-10-05T07:58:20.463Z,1013.59
2022-10-05T07:59:20.533Z,1013.59
2022-10-05T08:00:20.692Z,1013.61
2022-10-05T08:01:20.872Z,1013.68
2022-10-05T08:02:20.997Z,1013.66
2022-10-05T08:03:21.120Z,1013.63
2022-10-05T08:04:21.143Z,1013.70
2022-10-05T08:05:21.292Z,1013.73
2022-10-05T08:06:21.431Z,1013.75
2022-10-05T08:07:21.496Z,1013.79
2022-10-05T08:08:21.602Z,1013.74
2022-10-05T08:09:21.714Z,1013.76
2022-10-05T08:10:21.821Z,1013.72
2022-10-05T08:11:21.999Z,1013.74
2022-10-05T08:12:22.074Z,1013.71
2022-10-05T08:13:22.218Z,1013.72
2022-10-05T08:14:22.363Z,1013.83
2022-10-05T08:15:22.451Z,1013.78
2022-10-05T08:16:22.662Z,1013.79
2022-10-05T08:17:25.508Z,1013.72
2022-10-05T08:18:22.777Z,1013.75
2022-10-05T08:19:22.883Z,1013.80
2022-10-05T08:20:22.995Z,1013.83
2022-10-05T08:21:23.144Z,1013.79
2022-10-05T08:22:23.226Z,1013.76
2022-10-05T08:23:23.335Z,1013.67
2022-10-05T08:24:23.445Z,1013.69
2022-10-05T08:25:23.563Z,1013.73
2022-10-05T08:26:23.755Z,1013.71
2022-10-05T08:27:23.786Z,1013.69
2022-10-05T08:28:23.985Z,1013.72
2022-10-05T08:29:24.031Z,1013.80
2022-10-05T08:30:24.182Z,1013.77
2022-10-05T08:31:24.541Z,1013.77
2022-10-05T08:32:24.418Z,1013.74
2022-10-05T08:33:24.555Z,1013.73
2022-10-05T08:34:24.698Z,1013.69
2022-10-05T08:35:24.839Z,1013.71
2022-10-05T08:36:25.056Z,1013.76
2022-10-05T08:37:25.122Z,1013.74
2022-10-05T08:38:25.302Z,1013.75
2022-10-05T08:39:25.342Z,1013.70
2022-10-05T08:40:25.442Z,1013.67
2022-10-05T08:41:25.604Z,1013.65
2022-10-05T08:42:25.741Z,1013.72
2022-10-05T08:43:25.980Z,1013.73
2022-10-05T08:44:25.975Z,1013.69
2022-10-05T08:45:26.286Z,1013.74
2022-10-05T08:46:26.298Z,1013.59
2022-10-05T08:47:26.994Z,1013.61
2022-10-05T08:48:26.438Z,1013.58
2022-10-05T08:49:26.557Z,1013.63
2022-10-05T08:50:26.677Z,1013.56
2022-10-05T08:51:26.802Z,1013.65
2022-10-05T08:52:26.922Z,1013.59
2022-10-05T08:53:27.083Z,1013.56
2022-10-05T08:54:27.174Z,1013.57
2022-10-05T08:55:27.328Z,1013.57
2022-10-05T08:56:28.949Z,1013.62
2022-10-05T08:57:27.604Z,1013.55
2022-10-05T08:58:27.785Z,1013.53
2022-10-05T08:59:27.980Z,1013.54
2022-10-05T09:00:28.041Z,1013.54
2022-10-05T09:01:28.272Z,1013.55
2022-10-05T09:02:28.424Z,1013.59
2022-10-05T09:03:33.563Z,1013.59
2022-10-05T09:04:28.627Z,1013.57
2022-10-05T09:05:28.720Z,1013.54
2022-10-05T09:06:28.850Z,1013.56
2022-10-05T09:07:28.978Z,1013.57
2022-10-05T09:08:29.108Z,1013.56
2022-10-05T09:09:29.378Z,1013.59
2022-10-05T09:10:29.398Z,1013.49
2022-10-05T09:11:29.484Z,1013.53
2022-10-05T09:12:29.597Z,1013.52
2022-10-05T09:13:29.708Z,1013.55
2022-10-05T09:14:29.856Z,1013.55
2022-10-05T09:15:30.008Z,1013.48
2022-10-05T09:16:30.034Z,1013.55
2022-10-05T09:17:30.188Z,1013.51
2022-10-05T09:18:30.250Z,1013.53
2022-10-05T09:19:30.354Z,1013.54
2022-10-05T09:20:30.585Z,1013.50
2022-10-05T09:21:30.577Z,1013.51
2022-10-05T09:22:30.684Z,1013.53
2022-10-05T09:23:30.792Z,1013.51
2022-10-05T09:24:30.908Z,1013.50
2022-10-05T09:25:31.049Z,1013.49
2022-10-05T09:26:31.133Z,1013.48
2022-10-05T09:27:31.255Z,1013.47
2022-10-05T09:28:31.536Z,1013.42
2022-10-05T09:29:31.489Z,1013.48
2022-10-05T09:30:31.600Z,1013.45
2022-10-05T09:31:31.893Z,1013.46
2022-10-05T09:32:31.824Z,1013.46
2022-10-05T09:33:32.002Z,1013.44
2022-10-05T09:34:32.219Z,1013.46
2022-10-05T09:35:32.136Z,1013.43
2022-10-05T09:36:32.241Z,1013.39
2022-10-05T09:37:32.342Z,1013.37
2022-10-05T09:38:32.447Z,1013.38
2022-10-05T09:39:32.604Z,1013.32
2022-10-05T09:40:32.659Z,1013.36
2022-10-05T09:41:32.762Z,1013.36
2022-10-05T09:42:32.907Z,1013.34
2022-10-05T09:43:33.004Z,1013.26
2022-10-05T09:44:33.162Z,1013.35
2022-10-05T09:45:33.247Z,1013.35
2022-10-05T09:46:33.422Z,1013.30
2022-10-05T09:47:33.613Z,1013.30
2022-10-05T09:48:33.663Z,1013.33
2022-10-05T09:49:34.109Z,1013.35
2022-10-05T09:50:33.922Z,1013.31
2022-10-05T09:51:34.033Z,1013.35
2022-10-05T09:52:34.159Z,1013.32
2022-10-05T09:53:34.274Z,1013.31
2022-10-05T09:54:34.448Z,1013.30
2022-10-05T09:55:34.488Z,1013.28
2022-10-05T09:56:34.818Z,1013.26
2022-10-05T09:57:34.733Z,1013.26
2022-10-05T09:58:34.862Z,1013.25
2022-10-05T09:59:35.064Z,1013.32
2022-10-05T10:00:35.150Z,1013.30
2022-10-05T10:01:35.431Z,1013.27
2022-10-05T10:02:35.608Z,1013.22
2022-10-05T10:03:35.577Z,1013.25
2022-10-05T10:04:35.801Z,1013.21
2022-10-05T10:05:35.790Z,1013.14
2022-10-05T10:06:35.897Z,1013.22
2022-10-05T10:07:36.025Z,1013.12
2022-10-05T10:08:36.151Z,1013.17
2022-10-05T10:09:38.706Z,1013.15
2022-10-05T10:10:36.413Z,1013.15
2022-10-05T10:11:36.534Z,1013.10
2022-10-05T10:12:36.665Z,1013.11
2022-10-05T10:13:36.778Z,1013.09
2022-10-05T10:14:37.048Z,1013.10
2022-10-05T10:15:37.108Z,1013.14
2022-10-05T10:16:37.161Z,1013.09
2022-10-05T10:17:37.287Z,1013.08
2022-10-05T10:18:37.425Z,1013.07
2022-10-05T10:19:37.648Z,1013.04
2022-10-05T10:20:37.678Z,1013.07
2022-10-05T10:21:37.772Z,1013.00
2022-10-05T10:22:42.273Z,1013.01
2022-10-05T10:23:37.998Z,1013.03
2022-10-05T10:24:38.134Z,1013.05
2022-10-05T10:25:38.307Z,1013.10
2022-10-05T10:26:38.306Z,1013.07
2022-10-05T10:27:38.423Z,1013.08
2022-10-05T10:28:38.554Z,1013.09
2022-10-05T10:29:38.649Z,1013.07
2022-10-05T10:30:38.852Z,1013.12
2022-10-05T10:31:38.869Z,1013.09
2022-10-05T10:32:38.972Z,1013.09
2022-10-05T10:33:39.093Z,1013.07
2022-10-05T10:34:39.207Z,1013.06
2022-10-05T10:35:39.398Z,1013.09
2022-10-05T10:36:39.456Z,1012.97
2022-10-05T10:37:39.563Z,1013.00
2022-10-05T10:38:39.673Z,1012.92
2022-10-05T10:39:39.796Z,1012.92
2022-10-05T10:40:39.939Z,1012.98
2022-10-05T10:41:40.025Z,1012.98
2022-10-05T10:42:40.271Z,1012.98
2022-10-05T10:43:40.237Z,1013.00
2022-10-05T10:44:40.453Z,1012.97
2022-10-05T10:45:40.457Z,1012.99
2022-10-05T10:46:40.737Z,1012.98
2022-10-05T10:47:40.912Z,1012.94
2022-10-05T10:48:40.785Z,1012.96
2022-10-05T10:49:40.889Z,1012.93
2022-10-05T10:50:41.007Z,1012.92
2022-10-05T10:51:41.116Z,1012.88
2022-10-05T10:52:41.313Z,1012.86
2022-10-05T10:53:41.329Z,1012.84
2022-10-05T10:54:41.442Z,1012.91
2022-10-05T10:55:41.539Z,1012.91
2022-10-05T10:56:41.638Z,1012.83
2022-10-05T10:57:41.775Z,1012.84
2022-10-05T10:58:41.823Z,1012.83
2022-10-05T10:59:41.921Z,1012.81
2022-10-05T11:00:42.049Z,1012.90
2022-10-05T11:01:42.171Z,1012.86
2022-10-05T11:02:42.481Z,1012.86
2022-10-05T11:03:42.289Z,1012.81
2022-10-05T11:04:42.381Z,1012.80
2022-10-05T11:05:46.428Z,1012.76
2022-10-05T11:06:42.568Z,1012.80
2022-10-05T11:07:42.796Z,1012.78
2022-10-05T11:08:42.798Z,1012.76
2022-10-05T11:09:42.884Z,1012.73
2022-10-05T11:10:42.996Z,1012.77
2022-10-05T11:11:43.112Z,1012.80
2022-10-05T11:12:43.350Z,1012.79
2022-10-05T11:13:43.359Z,1012.74
2022-10-05T11:14:43.455Z,1012.74
2022-10-05T11:15:43.677Z,1012.72
2022-10-05T11:16:43.677Z,1012.74
2022-10-05T11:17:43.889Z,1012.66
2022-10-05T11:18:43.892Z,1012.66
2022-10-05T11:20:02.647Z,1012.64
2022-10-05T11:20:44.096Z,1012.70
2022-10-05T11:21:44.207Z,1012.67
2022-10-05T11:22:44.340Z,1012.71
2022-10-05T11:23:44.443Z,1012.66
2022-10-05T11:24:44.587Z,1012.68
2022-10-05T11:25:44.636Z,1012.65
2022-10-05T11:26:44.758Z,1012.63
2022-10-05T11:27:44.862Z,1012.60
2022-10-05T11:28:44.978Z,1012.63
2022-10-05T11:29:45.201Z,1012.62
2022-10-05T11:30:47.550Z,1012.57
2022-10-05T11:31:45.423Z,1012.63
2022-10-05T11:32:45.455Z,1012.58
2022-10-05T11:33:45.647Z,1012.61
2022-10-05T11:34:45.847Z,1012.58
2022-10-05T11:35:45.781Z,1012.59
2022-10-05T11:36:45.872Z,1012.56
2022-10-05T11:37:45.952Z,1012.57
2022-10-05T11:38:46.034Z,1012.60
2022-10-05T11:39:46.322Z,1012.51
2022-10-05T11:40:46.225Z,1012.54
2022-10-05T11:41:46.652Z,1012.52
2022-10-05T11:42:46.394Z,1012.50
2022-10-05T11:43:46.483Z,1012.48
2022-10-05T11:44:46.606Z,1012.52
2022-10-05T11:45:46.638Z,1012.51
2022-10-05T11:46:46.796Z,1012.50
2022-10-05T11:47:46.806Z,1012.41
2022-10-05T11:48:46.899Z,1012.44
2022-10-05T11:49:47.011Z,1012.39
2022-10-05T11:50:47.188Z,1012.45
2022-10-05T11:51:47.568Z,1012.43
2022-10-05T11:52:47.252Z,1012.45
2022-10-05T11:53:47.368Z,1012.44
2022-10-05T11:55:12.497Z,1012.40
2022-10-05T11:55:47.628Z,1012.39
2022-10-05T11:56:50.759Z,1012.33
2022-10-05T11:57:47.764Z,1012.33
2022-10-05T11:58:47.848Z,1012.27
2022-10-05T11:59:47.937Z,1012.31
2022-10-05T12:00:48.118Z,1012.25
2022-10-05T12:01:48.160Z,1012.27
2022-10-05T12:02:48.439Z,1012.28
2022-10-05T12:03:48.516Z,1012.25
2022-10-05T12:04:48.450Z,1012.26
2022-10-05T12:05:48.628Z,1012.25
2022-10-05T12:06:48.897Z,1012.24